createdAt,value
2019-03-22T00:00:41.855Z,99.90
2019-03-22T00:03:09.830Z,99.90
2019-03-22T00:05:37.744Z,99.90
2019-03-22T00:08:05.919Z,99.90
2019-03-22T00:10:33.856Z,99.90
2019-03-22T00:13:01.973Z,99.90
2019-03-22T00:15:30.226Z,99.90
2019-03-22T00:17:58.437Z,99.90
2019-03-22T00:20:26.308Z,99.90
2019-03-22T00:22:54.158Z,99.90
2019-03-22T00:25:22.008Z,99.90
2019-03-22T00:27:50.143Z,99.90
2019-03-22T00:30:18.064Z,99.90
2019-03-22T00:32:46.147Z,99.90
2019-03-22T00:35:14.354Z,99.90
2019-03-22T00:37:42.538Z,99.90
2019-03-22T00:40:10.785Z,99.90
2019-03-22T00:42:39.327Z,99.90
2019-03-22T00:45:07.374Z,99.90
2019-03-22T00:47:35.232Z,99.90
2019-03-22T00:50:03.991Z,99.90
2019-03-22T00:52:31.800Z,99.90
2019-03-22T00:54:59.650Z,99.90
2019-03-22T00:57:28.880Z,99.90
2019-03-22T00:59:56.866Z,99.90
2019-03-22T01:02:24.831Z,99.90
2019-03-22T01:04:52.777Z,99.90
2019-03-22T01:07:20.614Z,99.90
2019-03-22T01:09:48.554Z,99.90
2019-03-22T01:12:16.945Z,99.90
2019-03-22T01:14:44.936Z,99.90
2019-03-22T01:17:12.807Z,99.90
2019-03-22T01:19:40.789Z,99.90
2019-03-22T01:22:08.720Z,99.90
2019-03-22T01:24:36.899Z,99.90
2019-03-22T01:27:04.719Z,99.90
2019-03-22T01:29:32.657Z,99.90
2019-03-22T01:32:00.902Z,99.90
2019-03-22T01:34:29.061Z,99.90
2019-03-22T01:36:57.277Z,99.90
2019-03-22T01:39:25.319Z,99.90
2019-03-22T01:41:53.146Z,99.90
2019-03-22T01:44:21.088Z,99.90
2019-03-22T01:46:48.907Z,99.90
2019-03-22T01:49:16.772Z,99.90
2019-03-22T01:51:44.622Z,99.90
2019-03-22T01:54:12.569Z,99.90
2019-03-22T01:56:40.686Z,99.90
2019-03-22T01:59:08.889Z,99.90
2019-03-22T02:01:36.722Z,99.90
2019-03-22T02:04:04.901Z,99.90
2019-03-22T02:06:32.739Z,99.90
2019-03-22T02:09:00.948Z,99.90
2019-03-22T02:11:29.128Z,99.90
2019-03-22T02:13:56.967Z,99.90
2019-03-22T02:16:25.079Z,99.90
2019-03-22T02:18:53.207Z,99.90
2019-03-22T02:21:21.051Z,99.90
2019-03-22T02:23:48.808Z,99.90
2019-03-22T02:26:16.627Z,99.90
2019-03-22T02:28:44.579Z,99.90
2019-03-22T02:31:12.413Z,99.90
2019-03-22T02:33:40.604Z,99.90
2019-03-22T02:36:09.011Z,99.90
2019-03-22T02:38:37.536Z,99.90
2019-03-22T02:41:05.403Z,99.90
2019-03-22T02:43:33.898Z,99.90
2019-03-22T02:46:02.139Z,99.90
2019-03-22T02:48:30.362Z,99.90
2019-03-22T02:50:58.211Z,99.90
2019-03-22T02:53:26.386Z,99.90
2019-03-22T02:55:54.674Z,99.90
2019-03-22T02:58:22.657Z,99.90
2019-03-22T03:00:50.571Z,99.90
2019-03-22T03:03:18.491Z,99.90
2019-03-22T03:05:46.697Z,99.90
2019-03-22T03:08:15.113Z,99.90
2019-03-22T03:10:42.940Z,99.90
2019-03-22T03:13:10.888Z,99.90
2019-03-22T03:15:38.754Z,99.90
2019-03-22T03:18:06.688Z,99.90
2019-03-22T03:20:34.632Z,99.90
2019-03-22T03:23:02.787Z,99.90
2019-03-22T03:25:31.362Z,99.90
2019-03-22T03:27:59.301Z,99.90
2019-03-22T03:30:27.240Z,99.90
2019-03-22T03:32:55.475Z,99.90
2019-03-22T03:35:23.712Z,99.90
2019-03-22T03:37:51.641Z,99.90
2019-03-22T03:40:19.471Z,99.90
2019-03-22T03:42:47.720Z,99.90
2019-03-22T03:45:28.906Z,99.90
2019-03-22T03:47:57.341Z,99.90
2019-03-22T03:50:25.188Z,99.90
2019-03-22T03:52:53.039Z,99.90
2019-03-22T03:55:20.975Z,99.90
2019-03-22T03:57:49.487Z,99.90
2019-03-22T04:00:17.631Z,99.90
2019-03-22T04:02:45.469Z,99.90
2019-03-22T04:05:14.575Z,99.90
2019-03-22T04:07:42.727Z,99.90
2019-03-22T04:10:10.561Z,99.90
2019-03-22T04:12:38.402Z,99.90
2019-03-22T04:15:06.457Z,99.90
2019-03-22T04:17:34.744Z,99.90
2019-03-22T04:20:03.078Z,99.90
2019-03-22T04:22:30.891Z,99.90
2019-03-22T04:24:58.827Z,99.90
2019-03-22T04:27:26.655Z,99.90
2019-03-22T04:29:54.762Z,99.90
2019-03-22T04:32:22.696Z,99.90
2019-03-22T04:34:50.613Z,99.90
2019-03-22T04:37:18.415Z,99.90
2019-03-22T04:39:46.509Z,99.90
2019-03-22T04:42:15.163Z,99.90
2019-03-22T04:44:43.295Z,99.90
2019-03-22T04:47:14.283Z,99.90
2019-03-22T04:49:43.265Z,99.90
2019-03-22T04:52:11.696Z,99.90
2019-03-22T04:54:40.609Z,99.90
2019-03-22T04:57:11.630Z,99.90
2019-03-22T04:59:41.762Z,99.90
2019-03-22T05:02:10.000Z,99.90
2019-03-22T05:04:40.154Z,99.90
2019-03-22T05:07:08.447Z,99.90
2019-03-22T05:09:36.773Z,99.90
2019-03-22T05:12:06.604Z,99.90
2019-03-22T05:14:37.259Z,99.90
2019-03-22T05:17:06.981Z,99.90
2019-03-22T05:19:37.717Z,99.90
2019-03-22T05:22:08.654Z,99.90
2019-03-22T05:24:38.454Z,99.90
2019-03-22T05:27:07.756Z,99.90
2019-03-22T05:29:38.838Z,99.90
2019-03-22T05:32:08.294Z,99.90
2019-03-22T05:34:36.355Z,99.90
2019-03-22T05:37:04.429Z,99.90
2019-03-22T05:39:32.544Z,99.90
2019-03-22T05:42:00.752Z,99.90
2019-03-22T05:44:28.596Z,99.90
2019-03-22T05:46:56.471Z,99.90
2019-03-22T05:49:24.593Z,99.90
2019-03-22T05:51:52.409Z,99.90
2019-03-22T05:54:20.331Z,99.90
2019-03-22T05:56:48.960Z,99.90
2019-03-22T05:59:16.893Z,99.90
2019-03-22T06:01:45.433Z,99.90
2019-03-22T06:04:13.582Z,99.90
2019-03-22T06:06:41.670Z,99.90
2019-03-22T06:09:09.753Z,99.90
2019-03-22T06:11:38.258Z,99.90
2019-03-22T06:14:07.055Z,99.90
2019-03-22T06:16:35.253Z,99.90
2019-03-22T06:19:03.369Z,99.90
2019-03-22T06:21:31.353Z,99.90
2019-03-22T06:23:59.324Z,99.90
2019-03-22T06:26:27.257Z,99.90
2019-03-22T06:28:55.084Z,99.90
2019-03-22T06:31:26.317Z,99.90
2019-03-22T06:33:54.159Z,99.90
2019-03-22T06:36:24.133Z,99.90
2019-03-22T06:38:52.385Z,99.90
2019-03-22T06:41:20.498Z,99.90
2019-03-22T06:43:48.366Z,99.90
2019-03-22T06:46:16.337Z,99.90
2019-03-22T06:48:44.338Z,99.90
2019-03-22T06:51:12.464Z,99.90
2019-03-22T06:53:40.393Z,99.90
2019-03-22T06:56:08.276Z,99.90
2019-03-22T06:58:36.205Z,99.90
2019-03-22T07:01:04.303Z,99.90
2019-03-22T07:03:32.500Z,99.90
2019-03-22T07:06:00.633Z,99.90
2019-03-22T07:08:28.464Z,99.90
2019-03-22T07:10:56.368Z,99.90
2019-03-22T07:13:24.311Z,99.90
2019-03-22T07:15:52.562Z,99.90
2019-03-22T07:18:20.411Z,99.90
2019-03-22T07:20:48.317Z,99.90
2019-03-22T07:23:16.162Z,99.90
2019-03-22T07:25:44.281Z,99.90
2019-03-22T07:28:12.788Z,99.90
2019-03-22T07:30:40.973Z,99.90
2019-03-22T07:33:09.127Z,99.90
2019-03-22T07:35:37.308Z,99.90
2019-03-22T07:38:05.245Z,99.90
2019-03-22T07:40:33.722Z,99.90
2019-03-22T07:43:01.785Z,99.90
2019-03-22T07:45:29.913Z,99.90
2019-03-22T07:47:57.864Z,99.90
2019-03-22T07:50:25.979Z,99.90
2019-03-22T07:52:54.200Z,99.90
2019-03-22T07:55:22.240Z,99.90
2019-03-22T07:57:50.145Z,99.90
2019-03-22T08:00:29.888Z,99.90
2019-03-22T08:02:47.968Z,99.90
2019-03-22T08:05:15.801Z,99.90
2019-03-22T08:07:43.992Z,99.90
2019-03-22T08:10:12.128Z,99.90
2019-03-22T08:12:40.080Z,99.90
2019-03-22T08:15:08.640Z,99.90
2019-03-22T08:17:36.651Z,99.90
2019-03-22T08:20:05.928Z,99.90
2019-03-22T08:22:33.781Z,99.90
2019-03-22T08:25:01.630Z,99.90
2019-03-22T08:27:29.562Z,99.90
2019-03-22T08:29:57.519Z,99.90
2019-03-22T08:32:25.698Z,99.90
2019-03-22T08:34:53.571Z,99.90
2019-03-22T08:37:21.486Z,99.90
2019-03-22T08:39:49.428Z,99.90
2019-03-22T08:42:17.377Z,99.90
2019-03-22T08:44:45.797Z,99.90
2019-03-22T08:47:14.102Z,99.90
2019-03-22T08:49:42.428Z,99.90
2019-03-22T08:52:10.787Z,99.90
2019-03-22T08:54:38.729Z,99.90
2019-03-22T08:57:06.681Z,99.90
2019-03-22T08:59:34.602Z,99.90
2019-03-22T09:02:02.476Z,99.90
2019-03-22T09:04:30.367Z,99.90
2019-03-22T09:06:59.083Z,99.90
2019-03-22T09:09:27.130Z,99.90
2019-03-22T09:11:55.085Z,99.90
2019-03-22T09:14:23.068Z,99.90
2019-03-22T09:16:50.953Z,99.90
2019-03-22T09:19:18.842Z,99.90
2019-03-22T09:21:46.711Z,99.90
2019-03-22T09:24:14.622Z,99.90
2019-03-22T09:26:47.501Z,99.90
2019-03-22T09:29:12.825Z,99.90
2019-03-22T09:31:40.657Z,99.90
2019-03-22T09:34:08.513Z,99.90
2019-03-22T09:36:36.664Z,99.90
2019-03-22T09:39:07.070Z,99.90
2019-03-22T09:41:35.245Z,99.90
2019-03-22T09:44:03.623Z,99.90
2019-03-22T09:46:31.843Z,99.90
2019-03-22T09:48:59.760Z,99.90
2019-03-22T09:51:27.992Z,99.90
2019-03-22T09:53:55.816Z,99.90
2019-03-22T09:56:23.776Z,99.90
2019-03-22T09:58:52.005Z,99.90
2019-03-22T10:01:23.846Z,99.90
2019-03-22T10:03:50.216Z,99.90
2019-03-22T10:06:18.152Z,99.90
2019-03-22T10:08:46.148Z,99.90
2019-03-22T10:11:14.167Z,99.90
2019-03-22T10:13:42.345Z,99.00
2019-03-22T10:16:10.254Z,98.60
2019-03-22T10:18:38.575Z,98.70
2019-03-22T10:21:06.566Z,93.70
2019-03-22T10:23:34.712Z,89.50
2019-03-22T10:26:03.037Z,65.10
2019-03-22T10:28:30.892Z,58.70
2019-03-22T10:30:58.826Z,52.10
2019-03-22T10:33:26.815Z,51.30
2019-03-22T10:35:54.720Z,49.90
2019-03-22T10:38:30.790Z,50.40
2019-03-22T10:40:52.944Z,49.20
2019-03-22T10:43:21.152Z,47.10
2019-03-22T10:45:49.369Z,46.60
2019-03-22T10:48:17.615Z,44.00
2019-03-22T10:50:46.073Z,44.30
2019-03-22T10:53:14.320Z,45.00
2019-03-22T10:55:42.538Z,46.70
2019-03-22T10:58:20.777Z,47.80
2019-03-22T11:00:40.147Z,44.30
2019-03-22T11:03:08.375Z,42.00
2019-03-22T11:05:36.417Z,42.00
2019-03-22T11:08:04.628Z,39.30
2019-03-22T11:10:32.993Z,36.00
2019-03-22T11:13:00.876Z,36.80
2019-03-22T11:15:28.777Z,38.20
2019-03-22T11:17:56.903Z,35.00
2019-03-22T11:20:24.726Z,35.60
2019-03-22T11:22:52.587Z,34.80
2019-03-22T11:25:20.412Z,32.60
2019-03-22T11:27:48.528Z,34.00
2019-03-22T11:30:17.093Z,31.80
2019-03-22T11:32:45.021Z,31.20
2019-03-22T11:35:13.089Z,30.90
2019-03-22T11:37:41.023Z,29.30
2019-03-22T11:40:10.100Z,29.50
2019-03-22T11:42:38.170Z,32.70
2019-03-22T11:45:07.877Z,36.10
2019-03-22T11:47:36.090Z,34.20
2019-03-22T11:50:05.409Z,34.30
2019-03-22T11:52:34.018Z,32.00
2019-03-22T11:55:01.962Z,28.00
2019-03-22T11:57:30.183Z,26.10
2019-03-22T11:59:58.298Z,27.40
2019-03-22T12:02:26.255Z,29.90
2019-03-22T12:04:54.098Z,28.80
2019-03-22T12:07:22.223Z,27.20
2019-03-22T12:09:50.046Z,29.30
2019-03-22T12:12:18.046Z,29.20
2019-03-22T12:14:45.893Z,29.10
2019-03-22T12:17:13.823Z,30.80
2019-03-22T12:19:41.908Z,29.60
2019-03-22T12:22:09.781Z,29.80
2019-03-22T12:24:37.641Z,26.70
2019-03-22T12:27:05.602Z,27.10
2019-03-22T12:29:34.361Z,27.70
2019-03-22T12:32:02.300Z,29.50
2019-03-22T12:34:30.355Z,25.00
2019-03-22T12:36:58.215Z,24.90
2019-03-22T12:39:26.126Z,24.90
2019-03-22T12:41:53.965Z,27.60
2019-03-22T12:44:21.798Z,26.50
2019-03-22T12:46:49.656Z,26.50
2019-03-22T12:49:17.587Z,23.80
2019-03-22T12:51:45.436Z,23.10
2019-03-22T12:54:13.275Z,22.80
2019-03-22T12:56:41.214Z,22.80
2019-03-22T12:59:09.173Z,23.90
2019-03-22T13:01:37.084Z,20.50
2019-03-22T13:04:04.925Z,22.10
2019-03-22T13:06:32.744Z,21.50
2019-03-22T13:09:00.581Z,21.20
2019-03-22T13:11:29.080Z,21.90
2019-03-22T13:13:56.918Z,23.50
2019-03-22T13:16:24.730Z,22.70
2019-03-22T13:18:52.585Z,24.90
2019-03-22T13:21:20.403Z,23.90
2019-03-22T13:23:48.521Z,23.90
2019-03-22T13:26:16.469Z,23.90
2019-03-22T13:28:44.326Z,22.80
2019-03-22T13:31:12.511Z,20.90
2019-03-22T13:33:40.326Z,20.60
2019-03-22T13:36:08.269Z,21.50
2019-03-22T13:38:36.178Z,22.00
2019-03-22T13:41:04.060Z,22.90
2019-03-22T13:43:32.002Z,22.60
2019-03-22T13:45:59.821Z,23.60
2019-03-22T13:48:27.747Z,25.50
2019-03-22T13:50:55.928Z,23.00
2019-03-22T13:53:24.030Z,22.40
2019-03-22T13:55:51.924Z,22.00
2019-03-22T13:58:19.754Z,23.60
2019-03-22T14:00:47.959Z,24.80
2019-03-22T14:03:15.890Z,24.20
2019-03-22T14:05:43.801Z,23.00
2019-03-22T14:08:11.934Z,24.90
2019-03-22T14:10:40.090Z,24.30
2019-03-22T14:13:07.902Z,24.50
2019-03-22T14:15:36.277Z,24.40
2019-03-22T14:18:04.969Z,25.30
2019-03-22T14:20:33.112Z,24.50
2019-03-22T14:23:01.312Z,23.90
2019-03-22T14:25:29.115Z,24.90
2019-03-22T14:27:56.968Z,25.30
2019-03-22T14:30:25.110Z,25.30
2019-03-22T14:32:53.343Z,24.20
2019-03-22T14:35:21.187Z,23.90
2019-03-22T14:37:49.005Z,22.90
2019-03-22T14:40:17.513Z,23.90
2019-03-22T14:42:45.338Z,24.30
2019-03-22T14:45:13.767Z,24.30
2019-03-22T14:47:42.110Z,24.10
2019-03-22T14:50:10.354Z,24.10
2019-03-22T14:52:38.292Z,25.90
2019-03-22T14:55:06.441Z,25.80
2019-03-22T14:57:34.372Z,24.90
2019-03-22T15:00:02.434Z,24.00
2019-03-22T15:02:30.277Z,24.30
2019-03-22T15:04:58.092Z,26.10
2019-03-22T15:07:26.289Z,25.40
2019-03-22T15:09:54.435Z,25.40
2019-03-22T15:12:22.627Z,23.80
2019-03-22T15:15:04.012Z,24.00
2019-03-22T15:17:40.214Z,25.50
2019-03-22T15:20:39.941Z,25.40
2019-03-22T15:23:25.808Z,27.20
2019-03-22T15:26:12.085Z,26.10
2019-03-22T15:28:58.310Z,28.90
2019-03-22T15:32:03.462Z,27.10
2019-03-22T15:34:44.737Z,27.10
2019-03-22T15:40:03.320Z,27.50
2019-03-22T15:42:31.142Z,29.50
2019-03-22T15:44:59.579Z,29.60
2019-03-22T15:47:27.549Z,33.20
2019-03-22T15:49:55.731Z,31.60
2019-03-22T15:52:23.658Z,31.00
2019-03-22T15:54:51.577Z,30.50
2019-03-22T15:57:19.438Z,30.90
2019-03-22T15:59:47.298Z,33.70
2019-03-22T16:02:15.554Z,32.50
2019-03-22T16:04:43.498Z,34.10
2019-03-22T16:07:11.340Z,35.80
2019-03-22T16:09:39.331Z,35.60
2019-03-22T16:12:07.496Z,37.50
2019-03-22T16:14:35.318Z,36.50
2019-03-22T16:17:03.185Z,34.70
2019-03-22T16:19:31.350Z,35.20
2019-03-22T16:21:59.268Z,37.10
2019-03-22T16:24:27.104Z,35.90
2019-03-22T16:26:55.756Z,36.70
2019-03-22T16:29:23.604Z,36.10
2019-03-22T16:31:51.455Z,36.60
2019-03-22T16:34:19.366Z,35.30
2019-03-22T16:36:47.217Z,34.70
2019-03-22T16:39:15.157Z,36.20
2019-03-22T16:41:43.319Z,36.60
2019-03-22T16:44:11.206Z,37.50
2019-03-22T16:46:39.129Z,38.90
2019-03-22T16:49:07.515Z,40.00
2019-03-22T16:51:35.755Z,39.60
2019-03-22T16:54:04.180Z,39.80
2019-03-22T16:56:32.117Z,39.70
2019-03-22T16:59:00.058Z,38.80
2019-03-22T17:01:27.874Z,38.30
2019-03-22T17:04:04.106Z,39.50
2019-03-22T17:06:26.020Z,40.60
2019-03-22T17:08:53.980Z,41.60
2019-03-22T17:11:21.815Z,42.60
2019-03-22T17:13:49.632Z,43.00
2019-03-22T17:16:17.460Z,42.60
2019-03-22T17:18:45.691Z,42.80
2019-03-22T17:21:13.664Z,43.70
2019-03-22T17:23:41.561Z,43.40
2019-03-22T17:26:09.684Z,44.50
2019-03-22T17:28:39.864Z,44.90
2019-03-22T17:31:07.711Z,45.10
2019-03-22T17:33:35.524Z,45.20
2019-03-22T17:36:03.755Z,45.90
2019-03-22T17:38:32.251Z,46.30
2019-03-22T17:41:00.406Z,46.00
2019-03-22T17:43:28.263Z,46.30
2019-03-22T17:45:56.199Z,47.40
2019-03-22T17:48:24.137Z,48.60
2019-03-22T17:50:51.986Z,48.10
2019-03-22T17:53:19.997Z,48.60
2019-03-22T17:55:47.965Z,50.00
2019-03-22T17:58:15.843Z,51.50
2019-03-22T18:00:44.205Z,54.00
2019-03-22T18:03:12.208Z,56.00
2019-03-22T18:05:40.412Z,57.30
2019-03-22T18:08:08.532Z,59.50
2019-03-22T18:10:36.353Z,65.10
2019-03-22T18:13:04.777Z,74.10
2019-03-22T18:15:33.035Z,82.70
2019-03-22T18:18:00.940Z,89.00
2019-03-22T18:20:28.785Z,91.20
2019-03-22T18:22:59.502Z,92.80
2019-03-22T18:25:27.778Z,94.20
2019-03-22T18:27:55.785Z,95.00
2019-03-22T18:30:24.186Z,95.70
2019-03-22T18:32:52.703Z,95.80
2019-03-22T18:35:20.946Z,96.40
2019-03-22T18:37:48.859Z,96.50
2019-03-22T18:40:17.041Z,97.10
2019-03-22T18:42:45.407Z,97.60
2019-03-22T18:45:13.851Z,98.10
2019-03-22T18:47:42.065Z,98.20
2019-03-22T18:50:10.376Z,98.60
2019-03-22T18:52:38.370Z,99.10
2019-03-22T18:55:06.581Z,99.20
2019-03-22T18:57:34.444Z,99.50
2019-03-22T19:00:02.655Z,99.90
2019-03-22T19:02:30.857Z,99.90
2019-03-22T19:04:58.783Z,99.90
2019-03-22T19:07:27.970Z,99.90
2019-03-22T19:09:55.898Z,99.90
2019-03-22T19:12:24.126Z,99.90
2019-03-22T19:14:52.300Z,99.90
2019-03-22T19:17:20.154Z,99.90
2019-03-22T19:19:48.005Z,99.90
2019-03-22T19:22:16.127Z,99.90
2019-03-22T19:24:43.966Z,99.90
2019-03-22T19:27:12.123Z,99.90
2019-03-22T19:29:40.058Z,99.90
2019-03-22T19:32:13.216Z,99.90
2019-03-22T19:34:38.024Z,99.90
2019-03-22T19:37:05.925Z,99.90
2019-03-22T19:39:34.065Z,99.90
2019-03-22T19:42:01.934Z,99.90
2019-03-22T19:44:29.731Z,99.90
2019-03-22T19:46:57.473Z,99.90
2019-03-22T19:49:25.337Z,99.90
2019-03-22T19:51:53.274Z,99.90
2019-03-22T19:54:21.100Z,99.90
2019-03-22T19:56:49.260Z,99.90
2019-03-22T19:59:17.423Z,99.90
2019-03-22T20:01:45.343Z,99.90
2019-03-22T20:04:13.701Z,99.90
2019-03-22T20:06:41.556Z,99.90
2019-03-22T20:09:10.195Z,99.90
2019-03-22T20:11:38.245Z,99.90
2019-03-22T20:14:06.187Z,99.90
2019-03-22T20:16:34.020Z,99.90
2019-03-22T20:19:01.863Z,99.90
2019-03-22T20:21:30.092Z,99.90
2019-03-22T20:23:58.751Z,99.90
2019-03-22T20:26:26.601Z,99.90
2019-03-22T20:28:54.538Z,99.90
2019-03-22T20:31:22.375Z,99.90
2019-03-22T20:33:50.325Z,99.90
2019-03-22T20:36:21.062Z,99.90
2019-03-22T20:38:48.902Z,99.90
2019-03-22T20:41:16.856Z,99.90
2019-03-22T20:43:44.781Z,99.90
2019-03-22T20:46:12.622Z,99.90
2019-03-22T20:48:40.573Z,99.90
2019-03-22T20:51:08.521Z,99.90
2019-03-22T20:53:36.524Z,99.90
2019-03-22T20:56:04.387Z,99.90
2019-03-22T20:58:32.485Z,99.90
2019-03-22T21:01:00.630Z,99.90
2019-03-22T21:03:28.917Z,99.90
2019-03-22T21:05:57.042Z,99.90
2019-03-22T21:08:24.969Z,99.90
2019-03-22T21:10:53.192Z,99.90
2019-03-22T21:13:21.026Z,99.90
2019-03-22T21:15:48.940Z,99.90
2019-03-22T21:18:19.799Z,99.90
2019-03-22T21:20:47.726Z,99.90
2019-03-22T21:23:15.756Z,99.90
2019-03-22T21:25:43.497Z,99.90
2019-03-22T21:28:11.646Z,99.90
2019-03-22T21:30:39.609Z,99.90
2019-03-22T21:33:07.541Z,99.90
2019-03-22T21:35:37.477Z,99.90
2019-03-22T21:38:10.925Z,99.90
2019-03-22T21:40:35.019Z,99.90
2019-03-22T21:43:04.084Z,99.90
2019-03-22T21:45:31.944Z,99.90
2019-03-22T21:47:59.908Z,99.90
2019-03-22T21:50:28.024Z,99.90
2019-03-22T21:52:55.943Z,99.90
2019-03-22T21:55:23.895Z,99.90
2019-03-22T21:57:52.123Z,99.90
2019-03-22T22:00:20.338Z,99.90
2019-03-22T22:02:48.284Z,99.90
2019-03-22T22:05:16.200Z,99.90
2019-03-22T22:07:44.144Z,99.90
2019-03-22T22:10:12.372Z,99.90
2019-03-22T22:12:40.517Z,99.90
2019-03-22T22:15:13.985Z,99.90
2019-03-22T22:17:42.251Z,99.90
2019-03-22T22:20:11.030Z,99.90
2019-03-22T22:22:41.644Z,99.90
2019-03-22T22:25:09.541Z,99.90
2019-03-22T22:27:37.756Z,99.90
2019-03-22T22:30:06.429Z,99.90
2019-03-22T22:32:34.336Z,99.90
2019-03-22T22:35:02.494Z,99.90
2019-03-22T22:37:33.637Z,99.90
2019-03-22T22:40:01.470Z,99.90
2019-03-22T22:42:29.747Z,99.90
2019-03-22T22:44:57.971Z,99.90
2019-03-22T22:47:27.238Z,99.90
2019-03-22T22:49:55.925Z,99.90
2019-03-22T22:52:23.858Z,99.90
2019-03-22T22:54:52.124Z,99.90
2019-03-22T22:57:20.075Z,99.90
2019-03-22T22:59:48.215Z,99.90
2019-03-22T23:02:16.409Z,99.90
2019-03-22T23:04:44.261Z,99.90
2019-03-22T23:07:12.095Z,99.90
2019-03-22T23:09:39.941Z,99.90
2019-03-22T23:12:07.803Z,99.90
2019-03-22T23:14:35.676Z,99.90
2019-03-22T23:17:03.643Z,99.90
2019-03-22T23:19:31.484Z,99.90
2019-03-22T23:21:59.575Z,99.90
2019-03-22T23:24:27.403Z,99.90
2019-03-22T23:26:55.498Z,99.90
2019-03-22T23:29:23.353Z,99.90
2019-03-22T23:31:51.287Z,99.90
2019-03-22T23:34:19.094Z,99.90
2019-03-22T23:36:47.269Z,99.90
2019-03-22T23:39:15.177Z,99.90
2019-03-22T23:41:43.021Z,99.90
2019-03-22T23:44:11.177Z,99.90
2019-03-22T23:46:39.057Z,99.90
2019-03-22T23:49:06.957Z,99.90
2019-03-22T23:51:34.874Z,99.90
2019-03-22T23:54:03.082Z,99.90
2019-03-22T23:56:31.495Z,99.90
2019-03-22T23:58:59.426Z,99.90
